AirNav   Duncan Aviation - Near you to keep you flying
 
 988 users online  

IS24 Harris Airport
Ramsey, Illinois, USA

GOING TO RAMSEY?


FAA INFORMATION EFFECTIVE 01 DECEMBER 2022

Location

FAA Identifier: IS24
Lat/Long: 39-04-40.0000N 089-04-54.0000W
39-04.666667N 089-04.900000W
39.0777778,-89.0816667
(estimated)
Elevation: 551 ft. / 168 m (estimated)
From city: 4 miles SSE of RAMSEY, IL
Time zone: UTC -6 (UTC -5 during Daylight Saving Time)
Zip code: 62080

Airport Operations

Airport use: Private use. Permission required prior to landing
Activation date: 03/2007
Control tower: no
ARTCC: KANSAS CITY CENTER
FSS: COLUMBIA FLIGHT SERVICE STATION
Attendance: UNATNDD
Segmented circle: no

Airport Communications

WX AWOS-AV at VLA (7 nm SW): 122.8 (618-283-9595)

Nearby radio navigation aids

VOR radial/distance  VOR name  Freq  Var
VLAr100/3.9VANDALIA VOR/DME114.3004E
BIBr286/29.5BIBLE GROVE VORTAC109.0003E
ENLr001/39.6CENTRALIA VORTAC115.0004E

 
NDB name  Hdg/Dist  Freq  Var  ID
SHELBYVILLE211/22.636502WSYZ ... -.-- --..

Airport Services

Runway Information

Runway 10/28

Dimensions: 1600 x 100 ft. / 488 x 30 m
Surface: turf
RUNWAY 10  RUNWAY 28
Traffic pattern: leftleft
Obstructions: 38 ft. pline, 110 ft. from runway40 ft. trees, 663 ft. from runway

Airport Ownership and Management from official FAA records

Ownership: Privately-owned
Owner: MIKE HARRIS
2340 HWY 51
RAMSEY, IL 62080
Phone (618) 699-9701
Manager: MIKE HARRIS
2340 HWY 51
RAMSEY, IL 62080
Phone (618) 699-9701

Additional Remarks

FOR CD CTC KANSAS CITY ARTCC AT 913-254-8508.

Instrument Procedures

There are no published instrument procedures at IS24.

Some nearby airports with instrument procedures:

KVLA - Vandalia Municipal Airport (7 nm SW)
KGRE - Greenville Airport (20 nm SW)
2H0 - Shelby County Airport (23 nm NE)
1H2 - Effingham County Memorial Airport (26 nm E)
KSLO - Salem-Leckrone Airport (27 nm S)
 
Loc | Ops | Rwys | IFR | FBO | Links
Com | Nav | Svcs | Stats | Notes
Area around IS24 (Harris Airport)
 
Road maps at: MapQuest Bing Google
 
Aerial photo
No photo
 
Sectional chart

 
Airport distance calculator
Flying to Harris Airport? Find the distance to fly.

From to IS24

Sunrise and sunset
Times for 04-Dec-2022
 Local
(UTC-6)
 Zulu
(UTC)
Morning civil twilight06:3112:31
Sunrise07:0013:00
Sunset16:3322:33
Evening civil twilight17:0223:02

Current date and time
Zulu (UTC)  05-Dec-2022 02:04:00
Local (UTC-6)  04-Dec-2022 20:04:00
 
METAR
K1H2 
26nm E 
050155Z AUTO 15004KT 10SM CLR 00/M07 A3017 RMK AO2 T00001071
K3LF 
28nm W 
050155Z AUTO 15007KT 10SM CLR M01/M07 A3014 RMK AO2 T10081067
KTAZ 
30nm NW 
050135Z AUTO 18009KT 10SM CLR 00/M06 A3012 RMK AO2 T10051062
KFOA 
38nm SE 
050155Z AUTO 18005KT 10SM CLR M02/M06 A3017 RMK AO2
KMTO 
44nm NE 
050153Z AUTO 18011KT 10SM CLR 01/M08 A3011 RMK AO2 SLP204 T00061078
KALN 
46nm W 
050150Z VRB04KT 10SM CLR M01/M06 A3013
KDEC 
47nm N 
050154Z 20011KT 10SM CLR 00/M07 A3010 RMK AO2 SLP202 T00001067
KMVN 
47nm S 
050156Z AUTO 00000KT 10SM CLR M02/M05 A3017 RMK AO2 SLP225 T10171050 FZRANO
KBLV 
48nm SW 
050055Z 15004KT 10SM BKN250 02/M06 A3016 RMK AO2A SLPNO ALSTG ESTMD RVRNO $
TAF
KDEC 
47nm N 
042301Z 0423/0518 18006KT P6SM SCT250 FM050800 18006KT P6SM SCT120 BKN200 FM051400 19009KT P6SM BKN120
KMVN 
47nm S 
041720Z 0418/0518 VRB02KT P6SM BKN250 FM051600 16007KT P6SM BKN025
KBLV 
48nm SW 
050000Z 0500/0606 VRB06KT 9999 BKN250 QNH2999INS BECMG 0509/0510 VRB06KT 9999 BKN020 OVC030 QNH2995INS BECMG 0512/0513 18009KT 9999 SCT020 BKN030 QNH2989INS BECMG 0517/0518 19010G15KT 9999 BKN030 QNH2985INS BECMG 0519/0520 20006KT 9999 BKN015 QNH2983INS BECMG 0600/0601 VRB06KT 9999 BKN005 QNH2991INS TX08/0521Z TNM02/0507Z
NOTAMs
Click for the latest NOTAMs
NOTAMs are issued by the DoD/FAA and will open in a separate window not controlled by AirNav.

 

 
 

Would you like to see your business listed on this page?

 If your business provides an interesting product or service to pilots, flight crews, aircraft, or users of the Harris Airport, you should consider listing it here.  To start the listing process, click on the button below
 
Add a business
 

Other Pages about Harris Airport

Update a link
 
Copyright © AirNav, LLC. All rights reserved. Privacy Policy  Contact